sensor_id;sensor_type;location;lat;lon;timestamp;pressure;altitude;pressure_sealevel;temperature;humidity
62847;BME280;49477;35.676;139.586;2023-05-12T00:01:42;101710.45;;;23.65;30.42
62847;BME280;49477;35.676;139.586;2023-05-12T00:04:11;101713.45;;;23.59;30.37
62847;BME280;49477;35.676;139.586;2023-05-12T00:06:41;101708.52;;;23.73;30.09
62847;BME280;49477;35.676;139.586;2023-05-12T00:09:10;101710.59;;;23.78;30.95
62847;BME280;49477;35.676;139.586;2023-05-12T00:11:40;101710.76;;;23.44;29.20
62847;BME280;49477;35.676;139.586;2023-05-12T00:14:09;101714.34;;;23.76;30.31
62847;BME280;49477;35.676;139.586;2023-05-12T00:16:39;101717.65;;;23.74;30.49
62847;BME280;49477;35.676;139.586;2023-05-12T00:19:08;101720.88;;;23.65;30.36
62847;BME280;49477;35.676;139.586;2023-05-12T00:21:38;101720.31;;;23.68;30.11
62847;BME280;49477;35.676;139.586;2023-05-12T00:24:08;101720.01;;;23.37;28.28
62847;BME280;49477;35.676;139.586;2023-05-12T00:26:37;101725.45;;;23.72;29.71
62847;BME280;49477;35.676;139.586;2023-05-12T00:29:06;101728.00;;;24.07;30.34
62847;BME280;49477;35.676;139.586;2023-05-12T00:31:35;101725.78;;;23.47;28.62
62847;BME280;49477;35.676;139.586;2023-05-12T00:34:05;101722.02;;;23.58;27.43
62847;BME280;49477;35.676;139.586;2023-05-12T00:36:34;101725.46;;;24.00;28.80
62847;BME280;49477;35.676;139.586;2023-05-12T00:39:04;101725.59;;;24.07;28.80
62847;BME280;49477;35.676;139.586;2023-05-12T00:41:33;101729.47;;;23.85;29.04
62847;BME280;49477;35.676;139.586;2023-05-12T00:44:03;101730.22;;;24.23;29.42
62847;BME280;49477;35.676;139.586;2023-05-12T00:46:32;101726.34;;;24.08;29.83
62847;BME280;49477;35.676;139.586;2023-05-12T00:49:02;101723.30;;;23.86;29.70
62847;BME280;49477;35.676;139.586;2023-05-12T00:51:32;101724.44;;;24.36;29.58
62847;BME280;49477;35.676;139.586;2023-05-12T00:54:01;101727.23;;;23.86;28.84
62847;BME280;49477;35.676;139.586;2023-05-12T00:56:31;101727.21;;;24.19;27.69
62847;BME280;49477;35.676;139.586;2023-05-12T00:59:01;101726.64;;;23.96;27.77
62847;BME280;49477;35.676;139.586;2023-05-12T01:01:31;101721.62;;;23.90;27.32
62847;BME280;49477;35.676;139.586;2023-05-12T01:04:00;101717.76;;;24.11;28.88
62847;BME280;49477;35.676;139.586;2023-05-12T01:06:37;101715.75;;;24.46;28.06
62847;BME280;49477;35.676;139.586;2023-05-12T01:09:08;101714.28;;;24.45;28.40
62847;BME280;49477;35.676;139.586;2023-05-12T01:11:38;101706.15;;;24.41;27.61
62847;BME280;49477;35.676;139.586;2023-05-12T01:14:08;101705.52;;;24.22;28.26
62847;BME280;49477;35.676;139.586;2023-05-12T01:16:44;101702.21;;;24.24;28.39
62847;BME280;49477;35.676;139.586;2023-05-12T01:19:28;101696.82;;;24.09;28.17
62847;BME280;49477;35.676;139.586;2023-05-12T01:22:00;101695.85;;;24.32;29.04
62847;BME280;49477;35.676;139.586;2023-05-12T01:24:31;101701.80;;;24.18;29.11
62847;BME280;49477;35.676;139.586;2023-05-12T01:27:03;101696.74;;;23.90;26.71
62847;BME280;49477;35.676;139.586;2023-05-12T01:29:34;101689.17;;;24.12;26.54
62847;BME280;49477;35.676;139.586;2023-05-12T01:32:04;101682.63;;;24.20;27.58
62847;BME280;49477;35.676;139.586;2023-05-12T01:34:34;101684.16;;;24.30;28.11
62847;BME280;49477;35.676;139.586;2023-05-12T01:37:04;101681.99;;;24.44;28.77
62847;BME280;49477;35.676;139.586;2023-05-12T01:39:33;101674.45;;;24.51;29.05
62847;BME280;49477;35.676;139.586;2023-05-12T01:42:03;101668.90;;;24.48;29.21
62847;BME280;49477;35.676;139.586;2023-05-12T01:44:32;101663.90;;;24.48;27.89
62847;BME280;49477;35.676;139.586;2023-05-12T01:47:02;101657.69;;;24.52;28.58
62847;BME280;49477;35.676;139.586;2023-05-12T01:49:31;101651.60;;;24.41;28.04
62847;BME280;49477;35.676;139.586;2023-05-12T01:52:00;101652.08;;;24.59;28.32
62847;BME280;49477;35.676;139.586;2023-05-12T01:54:30;101650.19;;;24.60;28.62
62847;BME280;49477;35.676;139.586;2023-05-12T01:56:59;101647.56;;;24.64;28.39
62847;BME280;49477;35.676;139.586;2023-05-12T01:59:29;101648.10;;;24.71;28.72
62847;BME280;49477;35.676;139.586;2023-05-12T02:01:59;101649.18;;;24.50;28.71
62847;BME280;49477;35.676;139.586;2023-05-12T02:04:28;101651.53;;;24.85;28.52
62847;BME280;49477;35.676;139.586;2023-05-12T02:06:57;101650.17;;;24.66;28.58
62847;BME280;49477;35.676;139.586;2023-05-12T02:09:27;101648.40;;;25.02;28.66
62847;BME280;49477;35.676;139.586;2023-05-12T02:11:56;101642.82;;;24.77;26.84
62847;BME280;49477;35.676;139.586;2023-05-12T02:14:26;101636.77;;;24.74;27.42
62847;BME280;49477;35.676;139.586;2023-05-12T02:16:56;101632.09;;;24.57;26.69
62847;BME280;49477;35.676;139.586;2023-05-12T02:19:25;101629.17;;;25.04;27.70
62847;BME280;49477;35.676;139.586;2023-05-12T02:21:54;101626.26;;;24.73;27.83
62847;BME280;49477;35.676;139.586;2023-05-12T02:24:24;101617.65;;;24.90;27.88
62847;BME280;49477;35.676;139.586;2023-05-12T02:26:53;101612.13;;;24.97;28.14
62847;BME280;49477;35.676;139.586;2023-05-12T02:29:23;101609.55;;;24.85;28.38
62847;BME280;49477;35.676;139.586;2023-05-12T02:31:53;101605.71;;;25.07;28.61
62847;BME280;49477;35.676;139.586;2023-05-12T02:34:22;101603.49;;;25.05;28.69
62847;BME280;49477;35.676;139.586;2023-05-12T02:36:52;101597.94;;;25.03;28.48
62847;BME280;49477;35.676;139.586;2023-05-12T02:39:21;101603.93;;;25.37;28.89
62847;BME280;49477;35.676;139.586;2023-05-12T02:41:51;101595.75;;;25.16;29.13
62847;BME280;49477;35.676;139.586;2023-05-12T02:44:20;101592.30;;;25.16;29.10
62847;BME280;49477;35.676;139.586;2023-05-12T02:46:50;101587.14;;;25.29;29.14
62847;BME280;49477;35.676;139.586;2023-05-12T02:49:19;101587.79;;;25.50;29.20
62847;BME280;49477;35.676;139.586;2023-05-12T02:51:48;101581.32;;;25.09;29.10
62847;BME280;49477;35.676;139.586;2023-05-12T02:54:17;101583.45;;;25.17;29.21
62847;BME280;49477;35.676;139.586;2023-05-12T02:56:47;101582.36;;;25.29;28.91
62847;BME280;49477;35.676;139.586;2023-05-12T02:59:16;101571.89;;;25.77;28.58
62847;BME280;49477;35.676;139.586;2023-05-12T03:01:46;101572.59;;;25.60;28.76
62847;BME280;49477;35.676;139.586;2023-05-12T03:04:15;101571.07;;;25.35;28.60
62847;BME280;49477;35.676;139.586;2023-05-12T03:06:45;101568.96;;;25.61;28.69
62847;BME280;49477;35.676;139.586;2023-05-12T03:09:14;101564.32;;;25.68;28.90
62847;BME280;49477;35.676;139.586;2023-05-12T03:11:43;101563.86;;;25.45;29.01
62847;BME280;49477;35.676;139.586;2023-05-12T03:14:12;101564.54;;;25.55;29.08
62847;BME280;49477;35.676;139.586;2023-05-12T03:16:42;101564.47;;;25.88;29.07
62847;BME280;49477;35.676;139.586;2023-05-12T03:19:12;101561.65;;;25.57;29.12
62847;BME280;49477;35.676;139.586;2023-05-12T03:21:41;101561.07;;;25.67;29.17
62847;BME280;49477;35.676;139.586;2023-05-12T03:24:10;101558.17;;;25.44;28.66
62847;BME280;49477;35.676;139.586;2023-05-12T03:26:40;101558.72;;;25.46;28.36
62847;BME280;49477;35.676;139.586;2023-05-12T03:29:09;101558.19;;;25.77;28.71
62847;BME280;49477;35.676;139.586;2023-05-12T03:31:39;101559.28;;;25.67;28.98
62847;BME280;49477;35.676;139.586;2023-05-12T03:34:08;101556.77;;;25.95;29.00
62847;BME280;49477;35.676;139.586;2023-05-12T03:36:38;101550.96;;;25.73;29.13
62847;BME280;49477;35.676;139.586;2023-05-12T03:39:07;101544.79;;;25.66;29.34
62847;BME280;49477;35.676;139.586;2023-05-12T03:41:37;101543.48;;;25.73;29.26
62847;BME280;49477;35.676;139.586;2023-05-12T03:44:06;101544.67;;;25.76;29.37
62847;BME280;49477;35.676;139.586;2023-05-12T03:46:36;101543.41;;;26.08;29.39
62847;BME280;49477;35.676;139.586;2023-05-12T03:49:05;101549.28;;;25.91;29.37
62847;BME280;49477;35.676;139.586;2023-05-12T03:51:34;101540.26;;;26.15;29.13
62847;BME280;49477;35.676;139.586;2023-05-12T03:54:04;101536.14;;;25.95;29.20
62847;BME280;49477;35.676;139.586;2023-05-12T03:56:33;101532.91;;;26.13;29.41
62847;BME280;49477;35.676;139.586;2023-05-12T03:59:01;101530.18;;;26.14;29.48
62847;BME280;49477;35.676;139.586;2023-05-12T04:01:31;101524.07;;;26.10;29.52
62847;BME280;49477;35.676;139.586;2023-05-12T04:04:00;101524.38;;;26.20;29.42
62847;BME280;49477;35.676;139.586;2023-05-12T04:06:30;101522.04;;;26.12;29.40
62847;BME280;49477;35.676;139.586;2023-05-12T04:09:00;101514.83;;;26.15;29.44
62847;BME280;49477;35.676;139.586;2023-05-12T04:11:29;101511.08;;;26.07;28.95
62847;BME280;49477;35.676;139.586;2023-05-12T04:13:58;101499.52;;;26.03;29.07
62847;BME280;49477;35.676;139.586;2023-05-12T04:16:28;101498.19;;;26.03;28.95
62847;BME280;49477;35.676;139.586;2023-05-12T04:18:57;101489.81;;;26.29;29.29
62847;BME280;49477;35.676;139.586;2023-05-12T04:21:27;101489.75;;;26.34;29.35
62847;BME280;49477;35.676;139.586;2023-05-12T04:23:56;101492.41;;;25.83;29.31
62847;BME280;49477;35.676;139.586;2023-05-12T04:26:26;101486.96;;;26.20;29.00
62847;BME280;49477;35.676;139.586;2023-05-12T04:28:55;101482.80;;;25.94;29.27
62847;BME280;49477;35.676;139.586;2023-05-12T04:31:25;101479.01;;;26.47;29.43
62847;BME280;49477;35.676;139.586;2023-05-12T04:33:54;101477.55;;;26.02;29.50
62847;BME280;49477;35.676;139.586;2023-05-12T04:36:23;101475.85;;;26.50;29.56
62847;BME280;49477;35.676;139.586;2023-05-12T04:38:53;101477.38;;;26.36;29.56
62847;BME280;49477;35.676;139.586;2023-05-12T04:41:22;101476.02;;;26.08;29.59
62847;BME280;49477;35.676;139.586;2023-05-12T04:43:52;101476.45;;;26.14;29.41
62847;BME280;49477;35.676;139.586;2023-05-12T04:46:21;101465.77;;;26.40;29.34
62847;BME280;49477;35.676;139.586;2023-05-12T04:48:51;101469.72;;;26.13;29.49
62847;BME280;49477;35.676;139.586;2023-05-12T04:51:20;101464.59;;;26.23;29.46
62847;BME280;49477;35.676;139.586;2023-05-12T04:53:49;101459.66;;;26.33;29.50
62847;BME280;49477;35.676;139.586;2023-05-12T04:56:18;101461.33;;;26.29;29.57
62847;BME280;49477;35.676;139.586;2023-05-12T04:58:47;101455.91;;;26.72;29.47
62847;BME280;49477;35.676;139.586;2023-05-12T05:01:17;101452.50;;;26.40;29.36
62847;BME280;49477;35.676;139.586;2023-05-12T05:03:46;101449.17;;;26.35;29.29
62847;BME280;49477;35.676;139.586;2023-05-12T05:06:15;101446.34;;;26.61;29.10
62847;BME280;49477;35.676;139.586;2023-05-12T05:08:45;101444.47;;;26.41;29.10
62847;BME280;49477;35.676;139.586;2023-05-12T05:11:15;101448.82;;;26.45;29.13
62847;BME280;49477;35.676;139.586;2023-05-12T05:13:44;101445.95;;;26.53;28.98
62847;BME280;49477;35.676;139.586;2023-05-12T05:16:14;101446.52;;;26.67;28.76
62847;BME280;49477;35.676;139.586;2023-05-12T05:18:43;101441.30;;;26.68;28.75
62847;BME280;49477;35.676;139.586;2023-05-12T05:21:13;101437.31;;;26.37;28.47
62847;BME280;49477;35.676;139.586;2023-05-12T05:23:42;101437.40;;;26.69;28.66
62847;BME280;49477;35.676;139.586;2023-05-12T05:26:12;101438.26;;;26.74;28.77
62847;BME280;49477;35.676;139.586;2023-05-12T05:28:41;101436.14;;;26.80;28.71
62847;BME280;49477;35.676;139.586;2023-05-12T05:31:15;101429.94;;;26.79;28.48
62847;BME280;49477;35.676;139.586;2023-05-12T05:33:45;101429.24;;;26.87;28.47
62847;BME280;49477;35.676;139.586;2023-05-12T05:36:14;101422.97;;;26.89;28.65
62847;BME280;49477;35.676;139.586;2023-05-12T05:38:44;101422.86;;;26.55;28.70
62847;BME280;49477;35.676;139.586;2023-05-12T05:41:13;101427.42;;;26.79;28.82
62847;BME280;49477;35.676;139.586;2023-05-12T05:43:43;101422.30;;;26.74;28.80
62847;BME280;49477;35.676;139.586;2023-05-12T05:46:12;101424.19;;;26.78;28.77
62847;BME280;49477;35.676;139.586;2023-05-12T05:48:42;101428.62;;;26.80;28.67
62847;BME280;49477;35.676;139.586;2023-05-12T05:51:11;101427.20;;;26.57;28.58
62847;BME280;49477;35.676;139.586;2023-05-12T05:53:41;101425.46;;;26.79;28.72
62847;BME280;49477;35.676;139.586;2023-05-12T05:56:09;101427.42;;;26.51;28.73
62847;BME280;49477;35.676;139.586;2023-05-12T05:58:40;101424.87;;;26.88;28.54
62847;BME280;49477;35.676;139.586;2023-05-12T06:01:14;101420.42;;;27.06;28.23
62847;BME280;49477;35.676;139.586;2023-05-12T06:03:43;101417.78;;;26.78;28.13
62847;BME280;49477;35.676;139.586;2023-05-12T06:06:13;101412.36;;;26.84;28.53
62847;BME280;49477;35.676;139.586;2023-05-12T06:08:42;101412.44;;;26.56;28.66
62847;BME280;49477;35.676;139.586;2023-05-12T06:11:11;101410.96;;;26.79;28.57
62847;BME280;49477;35.676;139.586;2023-05-12T06:13:41;101415.44;;;26.83;28.45
62847;BME280;49477;35.676;139.586;2023-05-12T06:16:10;101415.99;;;26.94;28.54
62847;BME280;49477;35.676;139.586;2023-05-12T06:18:40;101411.45;;;26.75;28.52
62847;BME280;49477;35.676;139.586;2023-05-12T06:21:09;101410.83;;;26.96;28.60
62847;BME280;49477;35.676;139.586;2023-05-12T06:23:39;101409.52;;;26.63;28.30
62847;BME280;49477;35.676;139.586;2023-05-12T06:26:09;101417.83;;;26.91;28.44
62847;BME280;49477;35.676;139.586;2023-05-12T06:28:38;101415.73;;;26.96;28.59
62847;BME280;49477;35.676;139.586;2023-05-12T06:31:07;101416.03;;;27.00;28.60
62847;BME280;49477;35.676;139.586;2023-05-12T06:33:36;101412.73;;;26.73;28.75
62847;BME280;49477;35.676;139.586;2023-05-12T06:36:06;101416.41;;;26.97;28.60
62847;BME280;49477;35.676;139.586;2023-05-12T06:38:36;101410.24;;;26.79;28.68
62847;BME280;49477;35.676;139.586;2023-05-12T06:41:05;101408.70;;;26.79;28.64
62847;BME280;49477;35.676;139.586;2023-05-12T06:43:35;101407.90;;;26.96;28.50
62847;BME280;49477;35.676;139.586;2023-05-12T06:46:04;101411.66;;;26.92;28.74
62847;BME280;49477;35.676;139.586;2023-05-12T06:48:33;101408.39;;;26.81;28.71
62847;BME280;49477;35.676;139.586;2023-05-12T06:51:03;101410.27;;;26.69;28.47
62847;BME280;49477;35.676;139.586;2023-05-12T06:53:32;101409.73;;;26.60;28.59
62847;BME280;49477;35.676;139.586;2023-05-12T06:56:02;101407.87;;;26.61;28.38
62847;BME280;49477;35.676;139.586;2023-05-12T06:58:31;101407.89;;;26.83;28.62
62847;BME280;49477;35.676;139.586;2023-05-12T07:01:01;101406.65;;;26.74;28.61
62847;BME280;49477;35.676;139.586;2023-05-12T07:03:32;101404.45;;;26.75;28.71
62847;BME280;49477;35.676;139.586;2023-05-12T07:06:01;101408.41;;;26.67;28.72
62847;BME280;49477;35.676;139.586;2023-05-12T07:08:30;101409.01;;;26.55;28.78
62847;BME280;49477;35.676;139.586;2023-05-12T07:11:00;101413.04;;;26.60;28.87
62847;BME280;49477;35.676;139.586;2023-05-12T07:13:30;101415.01;;;26.45;29.33
62847;BME280;49477;35.676;139.586;2023-05-12T07:15:59;101416.44;;;26.63;28.97
62847;BME280;49477;35.676;139.586;2023-05-12T07:18:28;101422.71;;;26.32;28.82
62847;BME280;49477;35.676;139.586;2023-05-12T07:20:58;101419.73;;;26.46;29.07
62847;BME280;49477;35.676;139.586;2023-05-12T07:23:27;101417.25;;;26.55;28.90
62847;BME280;49477;35.676;139.586;2023-05-12T07:25:57;101417.18;;;26.20;28.91
62847;BME280;49477;35.676;139.586;2023-05-12T07:28:27;101418.20;;;26.48;28.87
62847;BME280;49477;35.676;139.586;2023-05-12T07:30:56;101416.43;;;26.58;28.74
62847;BME280;49477;35.676;139.586;2023-05-12T07:33:26;101419.12;;;26.75;28.70
62847;BME280;49477;35.676;139.586;2023-05-12T07:35:55;101417.67;;;26.47;28.78
62847;BME280;49477;35.676;139.586;2023-05-12T07:38:25;101420.14;;;26.54;28.90
62847;BME280;49477;35.676;139.586;2023-05-12T07:40:54;101421.36;;;26.56;29.04
62847;BME280;49477;35.676;139.586;2023-05-12T07:43:23;101423.89;;;26.38;28.94
62847;BME280;49477;35.676;139.586;2023-05-12T07:45:53;101423.38;;;26.33;29.08
62847;BME280;49477;35.676;139.586;2023-05-12T07:48:22;101424.75;;;26.36;29.11
62847;BME280;49477;35.676;139.586;2023-05-12T07:50:52;101433.97;;;26.09;29.11
62847;BME280;49477;35.676;139.586;2023-05-12T07:53:21;101437.80;;;26.56;29.01
62847;BME280;49477;35.676;139.586;2023-05-12T07:55:50;101438.85;;;26.34;29.06
62847;BME280;49477;35.676;139.586;2023-05-12T07:58:20;101443.45;;;25.94;29.11
62847;BME280;49477;35.676;139.586;2023-05-12T08:00:49;101443.31;;;26.34;29.22
62847;BME280;49477;35.676;139.586;2023-05-12T08:03:19;101441.04;;;26.00;29.15
62847;BME280;49477;35.676;139.586;2023-05-12T08:05:48;101442.51;;;25.85;29.29
62847;BME280;49477;35.676;139.586;2023-05-12T08:08:18;101444.73;;;25.78;29.24
62847;BME280;49477;35.676;139.586;2023-05-12T08:10:47;101442.58;;;26.15;29.23
62847;BME280;49477;35.676;139.586;2023-05-12T08:13:17;101444.95;;;26.42;29.27
62847;BME280;49477;35.676;139.586;2023-05-12T08:15:47;101445.28;;;26.61;29.26
62847;BME280;49477;35.676;139.586;2023-05-12T08:18:16;101445.98;;;26.43;29.23
62847;BME280;49477;35.676;139.586;2023-05-12T08:20:47;101443.87;;;26.13;28.96
62847;BME280;49477;35.676;139.586;2023-05-12T08:23:17;101449.15;;;26.49;29.00
62847;BME280;49477;35.676;139.586;2023-05-12T08:25:46;101455.22;;;26.27;29.05
62847;BME280;49477;35.676;139.586;2023-05-12T08:28:15;101458.46;;;26.52;29.07
62847;BME280;49477;35.676;139.586;2023-05-12T08:30:46;101456.57;;;26.25;28.92
62847;BME280;49477;35.676;139.586;2023-05-12T08:33:15;101458.13;;;26.57;28.98
62847;BME280;49477;35.676;139.586;2023-05-12T08:35:45;101461.84;;;26.64;28.79
62847;BME280;49477;35.676;139.586;2023-05-12T08:38:14;101463.15;;;26.32;28.69
62847;BME280;49477;35.676;139.586;2023-05-12T08:40:52;101460.10;;;26.28;28.52
62847;BME280;49477;35.676;139.586;2023-05-12T08:43:25;101462.91;;;26.30;28.50
62847;BME280;49477;35.676;139.586;2023-05-12T08:45:54;101468.89;;;26.30;28.37
62847;BME280;49477;35.676;139.586;2023-05-12T08:48:25;101475.16;;;26.35;28.57
62847;BME280;49477;35.676;139.586;2023-05-12T08:50:57;101482.12;;;26.21;28.63
62847;BME280;49477;35.676;139.586;2023-05-12T08:53:28;101483.58;;;26.04;28.49
62847;BME280;49477;35.676;139.586;2023-05-12T08:55:58;101487.43;;;26.09;28.30
62847;BME280;49477;35.676;139.586;2023-05-12T08:58:28;101488.68;;;26.04;28.85
62847;BME280;49477;35.676;139.586;2023-05-12T09:00:59;101491.72;;;26.22;28.73
62847;BME280;49477;35.676;139.586;2023-05-12T09:03:31;101503.43;;;26.04;28.78
62847;BME280;49477;35.676;139.586;2023-05-12T09:06:01;101505.28;;;25.94;28.80
62847;BME280;49477;35.676;139.586;2023-05-12T09:08:31;101512.38;;;25.91;28.84
62847;BME280;49477;35.676;139.586;2023-05-12T09:11:01;101507.58;;;26.04;28.79
62847;BME280;49477;35.676;139.586;2023-05-12T09:13:37;101508.31;;;25.61;29.08
62847;BME280;49477;35.676;139.586;2023-05-12T09:16:12;101508.11;;;25.77;29.12
62847;BME280;49477;35.676;139.586;2023-05-12T09:18:50;101507.56;;;25.87;29.06
62847;BME280;49477;35.676;139.586;2023-05-12T09:21:20;101507.71;;;25.94;29.35
62847;BME280;49477;35.676;139.586;2023-05-12T09:23:57;101511.50;;;25.36;29.29
62847;BME280;49477;35.676;139.586;2023-05-12T09:26:27;101508.43;;;25.60;29.40
62847;BME280;49477;35.676;139.586;2023-05-12T09:29:05;101509.09;;;25.25;29.60
62847;BME280;49477;35.676;139.586;2023-05-12T09:31:37;101500.90;;;25.21;29.91
62847;BME280;49477;35.676;139.586;2023-05-12T09:34:08;101497.25;;;24.99;29.90
62847;BME280;49477;35.676;139.586;2023-05-12T09:36:37;101503.51;;;25.13;29.84
62847;BME280;49477;35.676;139.586;2023-05-12T09:39:08;101508.27;;;25.12;30.01
62847;BME280;49477;35.676;139.586;2023-05-12T09:41:38;101513.62;;;25.23;29.95
62847;BME280;49477;35.676;139.586;2023-05-12T09:44:09;101511.76;;;25.17;30.04
62847;BME280;49477;35.676;139.586;2023-05-12T09:46:38;101507.97;;;24.88;30.29
62847;BME280;49477;35.676;139.586;2023-05-12T09:49:07;101508.59;;;25.79;30.13
62847;BME280;49477;35.676;139.586;2023-05-12T09:51:38;101509.76;;;25.19;30.26
62847;BME280;49477;35.676;139.586;2023-05-12T09:54:08;101509.47;;;25.10;30.25
62847;BME280;49477;35.676;139.586;2023-05-12T09:56:38;101511.93;;;24.85;30.36
62847;BME280;49477;35.676;139.586;2023-05-12T09:59:09;101511.51;;;24.90;30.24
62847;BME280;49477;35.676;139.586;2023-05-12T10:01:40;101516.06;;;24.82;30.58
62847;BME280;49477;35.676;139.586;2023-05-12T10:04:10;101521.96;;;24.99;30.51
62847;BME280;49477;35.676;139.586;2023-05-12T10:06:41;101524.53;;;25.18;30.50
62847;BME280;49477;35.676;139.586;2023-05-12T10:09:17;101527.69;;;24.94;30.43
62847;BME280;49477;35.676;139.586;2023-05-12T10:11:49;101526.88;;;24.89;30.78
62847;BME280;49477;35.676;139.586;2023-05-12T10:14:22;101532.08;;;24.97;30.66
62847;BME280;49477;35.676;139.586;2023-05-12T10:16:52;101532.06;;;24.76;30.71
62847;BME280;49477;35.676;139.586;2023-05-12T10:19:21;101533.45;;;25.11;30.65
62847;BME280;49477;35.676;139.586;2023-05-12T10:21:54;101541.39;;;24.92;30.67
62847;BME280;49477;35.676;139.586;2023-05-12T10:24:25;101541.26;;;24.78;30.81
62847;BME280;49477;35.676;139.586;2023-05-12T10:26:55;101540.19;;;24.82;30.95
62847;BME280;49477;35.676;139.586;2023-05-12T10:29:25;101539.82;;;25.11;30.94
62847;BME280;49477;35.676;139.586;2023-05-12T10:31:55;101542.45;;;24.72;31.14
62847;BME280;49477;35.676;139.586;2023-05-12T10:34:31;101549.50;;;24.52;31.28
62847;BME280;49477;35.676;139.586;2023-05-12T10:37:02;101548.97;;;24.79;31.50
62847;BME280;49477;35.676;139.586;2023-05-12T10:39:32;101552.19;;;24.64;31.41
62847;BME280;49477;35.676;139.586;2023-05-12T10:42:04;101553.75;;;24.73;31.72
62847;BME280;49477;35.676;139.586;2023-05-12T10:44:34;101557.21;;;24.73;31.70
62847;BME280;49477;35.676;139.586;2023-05-12T10:47:12;101559.57;;;24.64;31.85
62847;BME280;49477;35.676;139.586;2023-05-12T10:49:41;101564.97;;;24.51;32.05
62847;BME280;49477;35.676;139.586;2023-05-12T10:52:12;101566.88;;;23.98;32.35
62847;BME280;49477;35.676;139.586;2023-05-12T10:54:42;101569.20;;;24.10;32.21
62847;BME280;49477;35.676;139.586;2023-05-12T10:57:14;101574.83;;;24.33;32.05
62847;BME280;49477;35.676;139.586;2023-05-12T10:59:51;101575.08;;;24.41;32.13
62847;BME280;49477;35.676;139.586;2023-05-12T11:02:24;101572.91;;;24.68;32.02
62847;BME280;49477;35.676;139.586;2023-05-12T11:04:57;101579.36;;;24.30;31.86
62847;BME280;49477;35.676;139.586;2023-05-12T11:07:28;101581.22;;;24.35;32.07
62847;BME280;49477;35.676;139.586;2023-05-12T11:09:58;101583.45;;;24.10;32.29
62847;BME280;49477;35.676;139.586;2023-05-12T11:12:29;101586.70;;;23.96;32.29
62847;BME280;49477;35.676;139.586;2023-05-12T11:15:00;101588.55;;;23.94;32.34
62847;BME280;49477;35.676;139.586;2023-05-12T11:17:29;101588.89;;;23.84;32.45
62847;BME280;49477;35.676;139.586;2023-05-12T11:19:59;101590.96;;;23.84;32.56
62847;BME280;49477;35.676;139.586;2023-05-12T11:22:28;101592.95;;;23.97;32.48
62847;BME280;49477;35.676;139.586;2023-05-12T11:24:59;101596.25;;;24.00;32.20
62847;BME280;49477;35.676;139.586;2023-05-12T11:27:36;101597.83;;;24.05;32.50
62847;BME280;49477;35.676;139.586;2023-05-12T11:30:07;101599.70;;;24.14;32.45
62847;BME280;49477;35.676;139.586;2023-05-12T11:32:36;101600.61;;;24.04;32.60
62847;BME280;49477;35.676;139.586;2023-05-12T11:35:14;101604.44;;;23.81;32.97
62847;BME280;49477;35.676;139.586;2023-05-12T11:37:45;101600.82;;;24.01;32.83
62847;BME280;49477;35.676;139.586;2023-05-12T11:40:16;101600.60;;;23.93;33.05
62847;BME280;49477;35.676;139.586;2023-05-12T11:42:47;101601.89;;;24.17;32.90
62847;BME280;49477;35.676;139.586;2023-05-12T11:45:22;101597.70;;;23.93;32.86
62847;BME280;49477;35.676;139.586;2023-05-12T11:47:52;101597.52;;;24.11;32.92
62847;BME280;49477;35.676;139.586;2023-05-12T11:50:23;101597.22;;;23.88;32.96
62847;BME280;49477;35.676;139.586;2023-05-12T11:52:53;101598.13;;;23.63;33.27
62847;BME280;49477;35.676;139.586;2023-05-12T11:55:23;101596.04;;;23.83;33.23
62847;BME280;49477;35.676;139.586;2023-05-12T11:58:01;101591.46;;;23.76;33.02
62847;BME280;49477;35.676;139.586;2023-05-12T12:00:33;101590.07;;;24.04;32.94
62847;BME280;49477;35.676;139.586;2023-05-12T12:03:08;101593.42;;;23.97;33.07
62847;BME280;49477;35.676;139.586;2023-05-12T12:05:39;101602.69;;;24.40;33.15
62847;BME280;49477;35.676;139.586;2023-05-12T12:08:10;101599.14;;;23.93;33.07
62847;BME280;49477;35.676;139.586;2023-05-12T12:10:41;101598.26;;;24.05;33.12
62847;BME280;49477;35.676;139.586;2023-05-12T12:13:11;101601.88;;;24.03;33.11
62847;BME280;49477;35.676;139.586;2023-05-12T12:15:41;101604.53;;;24.03;33.17
62847;BME280;49477;35.676;139.586;2023-05-12T12:18:11;101603.66;;;23.98;33.36
62847;BME280;49477;35.676;139.586;2023-05-12T12:20:40;101605.73;;;24.29;33.68
62847;BME280;49477;35.676;139.586;2023-05-12T12:23:10;101603.64;;;23.99;33.44
62847;BME280;49477;35.676;139.586;2023-05-12T12:25:39;101599.74;;;24.30;33.53
62847;BME280;49477;35.676;139.586;2023-05-12T12:28:08;101602.43;;;24.13;33.65
62847;BME280;49477;35.676;139.586;2023-05-12T12:30:38;101601.92;;;24.13;33.75
62847;BME280;49477;35.676;139.586;2023-05-12T12:33:08;101605.19;;;23.85;33.73
62847;BME280;49477;35.676;139.586;2023-05-12T12:35:37;101601.18;;;23.92;33.83
62847;BME280;49477;35.676;139.586;2023-05-12T12:38:07;101601.70;;;23.98;33.92
62847;BME280;49477;35.676;139.586;2023-05-12T12:40:36;101599.04;;;24.07;33.99
62847;BME280;49477;35.676;139.586;2023-05-12T12:43:06;101601.08;;;24.55;34.16
62847;BME280;49477;35.676;139.586;2023-05-12T12:45:35;101601.37;;;24.06;34.28